Time;durP1;ratioP1;P1;durP2;ratioP2;P2;SDS_P1;SDS_P2;PMS_P1;PMS_P2;Temp;Humidity;BMP_temperature;BMP_pressure;BME280_temperature;BME280_humidity;BME280_pressure;Samples;Min_cycle;Max_cycle;Signal;HPM_P1;HPM_P2
2021/05/03 00:01:56;;;;;;;8.00;4.00;;;5.20;99.90;;;;;;5114045;28;20054;-57
2021/05/03 00:04:23;;;;;;;5.75;4.07;;;5.30;99.90;;;;;;5113632;28;20040;-57
2021/05/03 00:06:49;;;;;;;5.35;3.97;;;5.20;99.90;;;;;;5113634;28;20484;-57
2021/05/03 00:09:15;;;;;;;5.30;4.05;;;5.30;99.90;;;;;;5113618;28;20090;-57
2021/05/03 00:11:40;;;;;;;6.10;4.43;;;5.30;99.90;;;;;;5113435;28;20043;-57
2021/05/03 00:14:06;;;;;;;4.57;3.75;;;5.30;99.90;;;;;;5113711;28;20039;-57
2021/05/03 00:16:32;;;;;;;5.28;4.10;;;5.30;99.90;;;;;;5113239;28;20067;-58
2021/05/03 00:18:58;;;;;;;8.65;4.47;;;5.20;99.90;;;;;;5113386;28;20043;-57
2021/05/03 00:21:24;;;;;;;5.72;3.85;;;5.20;99.90;;;;;;5113693;28;20059;-58
2021/05/03 00:23:50;;;;;;;6.90;3.70;;;5.20;99.90;;;;;;5113444;28;20043;-57
2021/05/03 00:26:16;;;;;;;6.88;4.53;;;5.20;99.90;;;;;;5113661;28;20036;-57
2021/05/03 00:28:42;;;;;;;5.18;4.22;;;5.00;99.90;;;;;;5113222;28;20401;-57
2021/05/03 00:31:08;;;;;;;7.15;4.28;;;5.00;99.90;;;;;;5113610;28;20477;-57
2021/05/03 00:33:33;;;;;;;4.43;3.67;;;5.00;99.90;;;;;;5113370;28;20390;-57
2021/05/03 00:35:59;;;;;;;7.45;4.13;;;5.00;99.90;;;;;;5113057;28;20143;-57
2021/05/03 00:38:26;;;;;;;8.38;4.40;;;5.00;99.90;;;;;;5112971;28;20075;-57
2021/05/03 00:40:52;;;;;;;8.30;4.60;;;4.90;99.90;;;;;;5112206;28;20096;-57
2021/05/03 00:43:20;;;;;;;7.72;4.63;;;4.90;99.90;;;;;;5113403;28;20058;-58
2021/05/03 00:45:47;;;;;;;6.70;4.45;;;4.80;99.90;;;;;;5112779;28;20039;-57
2021/05/03 00:48:13;;;;;;;5.97;4.32;;;4.80;99.90;;;;;;5113051;28;20039;-57
2021/05/03 00:50:40;;;;;;;6.60;4.63;;;4.80;99.90;;;;;;5113211;28;20096;-57
2021/05/03 00:53:06;;;;;;;7.32;4.13;;;4.80;99.90;;;;;;5113272;28;20043;-57
2021/05/03 00:55:32;;;;;;;4.85;3.63;;;4.80;99.90;;;;;;5113125;28;20112;-57
2021/05/03 00:57:59;;;;;;;4.78;3.78;;;4.90;99.90;;;;;;5113045;28;20039;-57
2021/05/03 01:00:27;;;;;;;5.55;3.70;;;4.90;99.90;;;;;;5112629;28;20120;-57
2021/05/03 01:02:53;;;;;;;7.22;4.40;;;4.90;99.90;;;;;;5112924;28;20118;-57
2021/05/03 01:05:20;;;;;;;5.70;4.10;;;4.90;99.90;;;;;;5113070;28;20092;-57
2021/05/03 01:07:47;;;;;;;6.80;3.97;;;4.90;99.90;;;;;;5113146;28;20365;-57
2021/05/03 01:10:13;;;;;;;4.50;3.67;;;5.00;99.90;;;;;;5113085;28;20062;-57
2021/05/03 01:12:40;;;;;;;5.90;3.97;;;5.00;99.90;;;;;;5112796;28;20139;-57
2021/05/03 01:15:07;;;;;;;6.20;3.55;;;5.10;99.90;;;;;;5112863;28;20036;-57
2021/05/03 01:17:37;;;;;;;6.22;3.90;;;5.10;99.90;;;;;;5112724;28;20044;-57
2021/05/03 01:20:09;;;;;;;5.78;3.47;;;5.10;99.90;;;;;;5112388;28;20046;-57
2021/05/03 01:22:35;;;;;;;6.85;3.92;;;5.10;99.90;;;;;;5112272;28;20039;-57
2021/05/03 01:25:01;;;;;;;5.53;4.68;;;5.10;99.90;;;;;;5112727;28;20132;-57
2021/05/03 01:27:27;;;;;;;5.70;4.00;;;5.10;99.90;;;;;;5112778;28;20043;-57
2021/05/03 01:29:53;;;;;;;8.45;4.40;;;5.20;99.90;;;;;;5111939;28;20138;-57
2021/05/03 01:32:18;;;;;;;5.43;4.20;;;5.30;99.90;;;;;;5112266;28;20043;-57
2021/05/03 01:34:44;;;;;;;9.05;4.28;;;5.30;99.90;;;;;;5112501;28;20088;-57
2021/05/03 01:37:16;;;;;;;7.32;4.75;;;5.20;99.90;;;;;;5112248;28;20055;-57
2021/05/03 01:39:42;;;;;;;6.22;3.92;;;5.20;99.90;;;;;;5112432;28;20048;-57
2021/05/03 01:42:08;;;;;;;4.78;4.10;;;5.30;99.90;;;;;;5112510;28;20048;-57
2021/05/03 01:44:34;;;;;;;5.13;4.25;;;5.20;99.90;;;;;;5112272;28;20043;-56
2021/05/03 01:47:00;;;;;;;7.60;4.30;;;5.30;99.90;;;;;;5093857;28;20059;-57
2021/05/03 01:49:29;;;;;;;4.90;4.03;;;5.30;99.90;;;;;;5112126;28;20035;-57
2021/05/03 01:51:55;;;;;;;5.55;4.55;;;5.30;99.90;;;;;;5114113;28;20067;-57
2021/05/03 01:54:21;;;;;;;4.90;3.95;;;5.30;99.90;;;;;;5116447;28;20043;-57
2021/05/03 01:56:48;;;;;;;5.18;4.63;;;5.30;99.90;;;;;;5116382;28;20366;-57
2021/05/03 01:59:14;;;;;;;4.88;4.18;;;5.40;99.90;;;;;;5115976;28;20150;-57
2021/05/03 02:01:40;;;;;;;6.93;4.45;;;5.40;99.90;;;;;;5116476;28;20043;-57
2021/05/03 02:04:07;;;;;;;5.10;3.80;;;5.40;99.90;;;;;;5116552;28;20048;-57
2021/05/03 02:06:35;;;;;;;4.78;3.88;;;5.50;99.90;;;;;;5116401;28;20104;-57
2021/05/03 02:09:08;;;;;;;7.32;3.78;;;5.50;99.90;;;;;;5115962;28;20047;-57
2021/05/03 02:11:35;;;;;;;7.47;4.35;;;5.50;99.90;;;;;;5115936;28;20044;-57
2021/05/03 02:14:00;;;;;;;6.63;4.13;;;5.50;99.90;;;;;;5116081;28;20181;-57
2021/05/03 02:16:26;;;;;;;6.97;4.72;;;5.50;99.90;;;;;;5115972;28;20103;-57
2021/05/03 02:18:52;;;;;;;8.95;4.80;;;5.50;99.90;;;;;;5115724;28;20142;-57
2021/05/03 02:21:17;;;;;;;5.75;4.47;;;5.50;99.90;;;;;;5115804;28;20431;-57
2021/05/03 02:23:43;;;;;;;7.40;5.28;;;5.60;99.90;;;;;;5115977;28;20054;-57
2021/05/03 02:26:09;;;;;;;7.45;4.30;;;5.60;99.90;;;;;;5115752;28;20360;-57
2021/05/03 02:28:34;;;;;;;6.18;4.38;;;5.60;99.90;;;;;;5115481;28;20050;-57
2021/05/03 02:31:00;;;;;;;7.25;4.78;;;5.60;99.90;;;;;;5115698;28;20075;-57
2021/05/03 02:33:26;;;;;;;7.05;4.38;;;5.60;99.90;;;;;;5115666;28;20385;-57
2021/05/03 02:35:51;;;;;;;5.55;4.53;;;5.60;99.90;;;;;;5115444;28;20047;-57
2021/05/03 02:38:17;;;;;;;5.90;4.35;;;5.60;99.90;;;;;;5115222;28;20055;-57
2021/05/03 02:40:43;;;;;;;9.52;4.50;;;5.70;99.90;;;;;;5115315;28;20051;-57
2021/05/03 02:43:09;;;;;;;7.05;4.90;;;5.70;99.90;;;;;;5115351;28;20043;-57
2021/05/03 02:45:36;;;;;;;7.10;4.45;;;5.70;99.90;;;;;;5115362;28;20047;-57
2021/05/03 02:48:02;;;;;;;5.35;4.00;;;5.70;99.90;;;;;;5115306;28;20062;-57
2021/05/03 02:50:29;;;;;;;6.43;4.43;;;5.70;99.90;;;;;;5115057;28;20043;-57
2021/05/03 02:52:55;;;;;;;7.43;4.88;;;5.80;99.90;;;;;;5115236;28;20043;-57
2021/05/03 02:55:22;;;;;;;6.57;4.70;;;5.70;99.90;;;;;;5114967;28;20039;-57
2021/05/03 02:57:49;;;;;;;5.93;4.35;;;5.70;99.90;;;;;;5115497;28;20039;-57
2021/05/03 03:00:32;;;;;;;9.00;4.40;;;5.70;99.90;;;;;;5114909;28;20091;-57
2021/05/03 03:02:59;;;;;;;5.70;4.18;;;5.70;99.90;;;;;;5114150;28;20051;-57
2021/05/03 03:05:25;;;;;;;5.88;4.22;;;5.70;99.90;;;;;;5114877;28;20047;-57
2021/05/03 03:07:51;;;;;;;5.43;3.92;;;5.70;99.90;;;;;;5115167;28;20050;-57
2021/05/03 03:10:18;;;;;;;8.35;4.30;;;5.70;99.90;;;;;;5115060;28;20112;-57
2021/05/03 03:12:45;;;;;;;5.57;4.05;;;5.60;99.90;;;;;;5114818;28;20054;-57
2021/05/03 03:15:12;;;;;;;6.68;4.05;;;5.60;99.90;;;;;;5114678;28;20039;-57
2021/05/03 03:17:38;;;;;;;6.13;4.25;;;5.60;99.90;;;;;;5114896;28;20047;-57
2021/05/03 03:20:06;;;;;;;5.85;4.70;;;5.70;99.90;;;;;;5114792;28;20048;-57
2021/05/03 03:22:33;;;;;;;7.65;3.90;;;5.70;99.90;;;;;;5114674;28;20562;-57
2021/05/03 03:24:59;;;;;;;4.22;3.83;;;5.70;99.90;;;;;;5114428;28;20501;-57
2021/05/03 03:27:24;;;;;;;5.05;4.05;;;5.70;99.90;;;;;;5114630;28;20441;-57
2021/05/03 03:29:50;;;;;;;6.22;4.40;;;5.80;99.90;;;;;;5115107;28;20044;-57
2021/05/03 03:32:16;;;;;;;6.75;4.40;;;5.80;99.90;;;;;;5114270;28;20538;-58
2021/05/03 03:34:41;;;;;;;7.43;4.20;;;5.80;99.90;;;;;;5114147;28;20504;-57
2021/05/03 03:37:07;;;;;;;5.30;4.15;;;5.80;99.90;;;;;;5114063;28;20392;-58
2021/05/03 03:39:33;;;;;;;6.80;4.28;;;5.80;99.90;;;;;;5114202;28;20130;-58
2021/05/03 03:41:59;;;;;;;6.63;4.93;;;5.90;99.90;;;;;;5114257;28;20046;-58
2021/05/03 03:44:25;;;;;;;10.35;4.85;;;5.90;99.90;;;;;;5114377;28;20393;-58
2021/05/03 03:46:51;;;;;;;6.03;4.50;;;5.90;99.90;;;;;;5113975;28;20491;-58
2021/05/03 03:49:17;;;;;;;7.85;4.93;;;5.90;99.90;;;;;;5113928;28;20492;-58
2021/05/03 03:51:43;;;;;;;5.68;4.75;;;6.00;99.90;;;;;;5113891;28;20539;-59
2021/05/03 03:54:08;;;;;;;7.22;4.75;;;5.90;99.90;;;;;;5113590;28;20046;-58
2021/05/03 03:56:34;;;;;;;8.35;4.80;;;6.00;99.90;;;;;;5113983;28;20040;-58
2021/05/03 03:59:00;;;;;;;8.60;5.03;;;6.00;99.90;;;;;;5113844;28;20074;-58
2021/05/03 04:01:29;;;;;;;7.05;6.05;;;5.90;99.90;;;;;;5113983;28;20039;-58
2021/05/03 04:04:00;;;;;;;9.98;5.55;;;6.00;99.90;;;;;;5113750;28;20392;-58
2021/05/03 04:09:37;;;;;;;5.85;4.82;;;6.00;99.90;;;;;;5011183;28;20042;-58
2021/05/03 04:25:36;;;;;;;11.40;6.80;;;6.10;99.90;;;;;;5010986;28;20132;-58
2021/05/03 04:28:03;;;;;;;8.30;7.00;;;6.00;99.90;;;;;;5010994;28;20052;-58
2021/05/03 04:30:29;;;;;;;7.13;6.22;;;6.10;99.90;;;;;;5010788;28;20057;-58
2021/05/03 04:32:55;;;;;;;12.63;7.55;;;6.10;99.90;;;;;;5010738;28;20046;-58
2021/05/03 04:35:21;;;;;;;13.45;7.45;;;6.10;99.90;;;;;;5010735;28;20057;-58
2021/05/03 04:37:47;;;;;;;7.93;6.43;;;6.00;99.90;;;;;;5010591;28;20054;-58
2021/05/03 04:40:13;;;;;;;13.82;7.03;;;6.00;99.90;;;;;;5028068;28;20057;-58
2021/05/03 04:42:39;;;;;;;9.38;6.90;;;6.00;99.90;;;;;;5044247;28;20381;-58
2021/05/03 04:45:06;;;;;;;10.77;6.43;;;6.00;99.90;;;;;;5113241;28;20042;-58
2021/05/03 04:47:32;;;;;;;9.65;6.75;;;6.00;99.90;;;;;;5113010;28;20071;-58
2021/05/03 04:49:58;;;;;;;7.57;5.97;;;5.90;99.90;;;;;;5112874;28;20067;-58
2021/05/03 04:52:25;;;;;;;9.40;6.00;;;6.00;99.90;;;;;;5112663;28;20485;-58
2021/05/03 04:54:53;;;;;;;10.80;6.30;;;5.90;99.90;;;;;;5112336;28;20496;-58
2021/05/03 04:57:20;;;;;;;12.93;6.40;;;5.90;99.90;;;;;;5112900;28;20039;-58
2021/05/03 04:59:47;;;;;;;10.73;6.40;;;5.90;99.90;;;;;;5112545;28;20044;-58
2021/05/03 05:02:14;;;;;;;9.50;6.57;;;5.80;99.90;;;;;;5112568;28;20047;-58
2021/05/03 05:04:40;;;;;;;9.25;6.57;;;5.90;99.90;;;;;;5112807;28;20044;-58
2021/05/03 05:07:07;;;;;;;8.70;6.57;;;5.90;99.90;;;;;;5112399;28;20040;-58
2021/05/03 05:09:34;;;;;;;6.80;5.97;;;5.90;99.90;;;;;;5112565;28;20036;-58
2021/05/03 05:11:59;;;;;;;10.38;7.28;;;5.90;99.90;;;;;;5112265;28;20035;-58
2021/05/03 05:14:25;;;;;;;10.45;7.20;;;6.00;99.90;;;;;;5112474;28;20035;-58
2021/05/03 05:16:51;;;;;;;9.10;6.90;;;6.10;99.90;;;;;;5112177;28;20039;-58
2021/05/03 05:19:17;;;;;;;11.20;7.30;;;6.10;99.90;;;;;;5112424;28;20043;-58
2021/05/03 05:21:44;;;;;;;13.82;7.95;;;6.20;99.90;;;;;;5112252;28;20050;-58
2021/05/03 05:24:10;;;;;;;13.15;8.15;;;6.20;99.90;;;;;;5112420;28;20104;-58
2021/05/03 05:26:36;;;;;;;13.02;8.68;;;6.20;99.90;;;;;;5111780;28;20050;-58
2021/05/03 05:29:02;;;;;;;11.93;8.98;;;6.20;99.90;;;;;;5092969;28;20044;-58
2021/05/03 05:31:27;;;;;;;13.20;8.73;;;6.20;99.90;;;;;;5111984;28;20043;-58
2021/05/03 05:33:53;;;;;;;8.95;7.00;;;5.90;99.90;;;;;;5112466;28;20484;-58
2021/05/03 05:36:19;;;;;;;8.10;7.03;;;5.80;99.90;;;;;;5112309;28;20036;-57
2021/05/03 05:38:45;;;;;;;9.20;6.50;;;5.70;99.90;;;;;;5111875;28;20417;-58
2021/05/03 05:41:13;;;;;;;6.40;5.68;;;5.70;99.90;;;;;;5112093;28;20066;-59
2021/05/03 05:43:40;;;;;;;;;;;5.70;99.90;;;;;;5112576;28;20052;-58
2021/05/03 05:46:07;;;;;;;4.63;3.55;;;5.60;99.90;;;;;;5112052;28;20254;-58
2021/05/03 05:48:34;;;;;;;5.88;4.18;;;5.70;99.90;;;;;;5112112;28;20039;-58
2021/05/03 05:50:59;;;;;;;7.60;4.15;;;5.70;99.90;;;;;;5111988;28;20045;-58
2021/05/03 05:53:25;;;;;;;6.88;4.55;;;5.70;99.90;;;;;;5111945;28;20040;-58
2021/05/03 05:55:51;;;;;;;7.05;3.97;;;5.70;99.90;;;;;;5111908;28;20051;-58
2021/05/03 05:58:16;;;;;;;5.05;4.50;;;5.70;99.90;;;;;;5112120;28;20047;-58
2021/05/03 06:00:42;;;;;;;4.57;3.95;;;5.70;99.90;;;;;;5112129;28;20044;-58
2021/05/03 06:03:08;;;;;;;4.47;4.07;;;5.70;99.90;;;;;;5112184;28;20082;-57
2021/05/03 06:05:34;;;;;;;5.25;3.40;;;5.80;99.90;;;;;;5112088;28;20073;-58
2021/05/03 06:08:03;;;;;;;6.50;3.45;;;5.70;99.90;;;;;;5112216;28;20039;-58
2021/05/03 06:10:29;;;;;;;10.48;4.72;;;5.80;99.90;;;;;;5112195;28;20050;-58
2021/05/03 06:12:54;;;;;;;6.68;4.80;;;5.80;99.90;;;;;;5111949;28;20040;-58
2021/05/03 06:15:20;;;;;;;10.25;4.97;;;5.90;99.90;;;;;;5112052;28;20043;-58
2021/05/03 06:17:46;;;;;;;10.07;6.38;;;5.90;99.90;;;;;;5112088;28;20122;-57
2021/05/03 06:20:12;;;;;;;12.45;6.45;;;6.00;99.90;;;;;;5112169;28;20443;-58
2021/05/03 06:22:38;;;;;;;11.32;6.13;;;6.00;99.90;;;;;;5111793;28;20584;-58
2021/05/03 06:25:04;;;;;;;7.80;5.15;;;6.00;99.90;;;;;;5112077;28;20130;-58
2021/05/03 06:27:30;;;;;;;7.70;4.38;;;6.10;99.90;;;;;;5111759;28;20042;-58
2021/05/03 06:29:56;;;;;;;8.68;5.07;;;6.20;99.90;;;;;;5112283;28;20040;-58
2021/05/03 06:32:22;;;;;;;9.25;5.85;;;6.20;99.90;;;;;;5111950;28;20490;-58
2021/05/03 06:34:47;;;;;;;9.88;5.57;;;6.20;99.90;;;;;;5111691;28;20123;-58
2021/05/03 06:37:13;;;;;;;8.13;4.38;;;6.20;99.90;;;;;;5111713;28;20090;-58
2021/05/03 06:39:39;;;;;;;5.30;3.75;;;6.30;99.90;;;;;;5114861;28;20431;-59
2021/05/03 06:42:05;;;;;;;4.35;3.08;;;6.30;99.90;;;;;;5115406;28;20435;-58
2021/05/03 06:44:52;;;;;;;3.17;2.40;;;6.30;99.90;;;;;;5115081;28;20047;-59
2021/05/03 06:47:18;;;;;;;7.00;4.32;;;6.20;99.90;;;;;;5032526;28;20038;-59
2021/05/03 06:49:44;;;;;;;3.72;2.88;;;6.20;99.90;;;;;;5032431;28;20065;-58
2021/05/03 06:52:10;;;;;;;5.18;3.35;;;6.10;99.90;;;;;;5032639;28;20057;-57
2021/05/03 06:54:36;;;;;;;4.38;3.53;;;6.10;99.90;;;;;;5032654;28;20468;-57
2021/05/03 06:57:01;;;;;;;13.15;4.55;;;6.10;99.90;;;;;;5032520;28;20571;-58
2021/05/03 06:59:27;;;;;;;7.07;5.55;;;6.00;99.90;;;;;;5032053;28;20087;-58
2021/05/03 07:01:54;;;;;;;5.53;4.53;;;6.00;99.90;;;;;;5032219;28;20119;-58
2021/05/03 07:04:19;;;;;;;6.53;5.20;;;6.10;99.90;;;;;;5032088;28;20079;-58
2021/05/03 07:06:45;;;;;;;6.97;4.55;;;6.10;99.90;;;;;;5016044;28;20546;-58
2021/05/03 07:09:11;;;;;;;7.90;5.75;;;6.20;99.90;;;;;;5031913;28;20045;-58
2021/05/03 07:11:39;;;;;;;9.00;6.68;;;6.20;99.90;;;;;;5031878;28;20099;-57
2021/05/03 07:14:04;;;;;;;9.95;7.88;;;6.30;99.90;;;;;;5031789;28;20096;-58
2021/05/03 07:16:30;;;;;;;10.68;7.85;;;6.40;99.90;;;;;;5032044;28;20069;-57
2021/05/03 07:18:56;;;;;;;10.27;8.27;;;6.40;99.90;;;;;;5032063;28;20053;-58
2021/05/03 07:21:21;;;;;;;11.65;9.45;;;6.40;99.90;;;;;;5031850;28;20471;-58
2021/05/03 07:23:49;;;;;;;13.10;10.20;;;6.40;99.90;;;;;;5052926;28;20397;-57
2021/05/03 07:26:15;;;;;;;19.60;11.45;;;6.40;99.90;;;;;;5114383;28;20039;-57
2021/05/03 07:28:41;;;;;;;13.60;11.32;;;6.40;99.90;;;;;;5114556;28;20503;-58
2021/05/03 07:31:07;;;;;;;17.58;12.70;;;6.50;99.90;;;;;;5114581;28;20048;-58
2021/05/03 07:33:33;;;;;;;17.02;13.63;;;6.50;99.90;;;;;;5114475;28;20036;-58
2021/05/03 07:35:59;;;;;;;16.17;13.15;;;6.60;99.90;;;;;;5114090;28;20393;-57
2021/05/03 07:38:25;;;;;;;18.95;14.88;;;6.70;99.90;;;;;;5114280;28;20126;-57
2021/05/03 07:40:50;;;;;;;22.85;15.55;;;6.70;99.90;;;;;;5114033;28;20044;-57
2021/05/03 07:43:16;;;;;;;21.33;16.17;;;6.70;99.90;;;;;;5114279;28;20069;-58
2021/05/03 07:45:43;;;;;;;24.55;17.42;;;6.80;99.90;;;;;;5113962;28;20504;-59
2021/05/03 07:48:09;;;;;;;27.20;20.73;;;6.80;99.90;;;;;;5114208;28;20043;-58
2021/05/03 07:50:37;;;;;;;28.42;21.35;;;6.90;99.90;;;;;;5114104;28;20127;-58
2021/05/03 07:53:03;;;;;;;30.00;22.52;;;6.90;99.90;;;;;;5114166;28;20043;-58
2021/05/03 07:55:28;;;;;;;38.08;23.95;;;7.00;99.90;;;;;;5114474;28;20051;-58
2021/05/03 07:57:54;;;;;;;37.60;25.08;;;7.00;99.90;;;;;;5113864;28;20104;-58
2021/05/03 08:00:20;;;;;;;32.22;24.27;;;7.00;99.90;;;;;;5113754;28;20587;-58
2021/05/03 08:02:46;;;;;;;36.08;24.73;;;7.00;99.90;;;;;;5113643;28;20051;-58
2021/05/03 08:05:12;;;;;;;33.97;24.98;;;7.00;99.90;;;;;;5113659;28;20035;-58
2021/05/03 08:07:38;;;;;;;37.78;26.83;;;7.10;99.90;;;;;;5113543;28;20036;-58
2021/05/03 08:10:06;;;;;;;34.97;25.83;;;7.10;99.90;;;;;;5113589;28;20043;-58
2021/05/03 08:12:32;;;;;;;37.67;26.13;;;7.20;99.90;;;;;;5113669;28;20078;-59
2021/05/03 08:14:59;;;;;;;38.20;27.80;;;7.20;99.90;;;;;;5113633;28;20040;-58
2021/05/03 08:17:25;;;;;;;40.33;28.15;;;7.20;99.90;;;;;;5113492;28;20123;-58
2021/05/03 08:19:51;;;;;;;42.30;30.83;;;7.30;99.90;;;;;;5113202;28;20138;-58
2021/05/03 08:22:18;;;;;;;50.28;32.70;;;7.40;99.90;;;;;;5111595;27;20039;-58
2021/05/03 08:24:44;;;;;;;44.50;32.08;;;7.40;99.90;;;;;;5130421;27;20475;-58
2021/05/03 08:27:09;;;;;;;50.15;32.90;;;7.50;99.90;;;;;;5122588;27;20043;-58
2021/05/03 08:29:36;;;;;;;55.72;33.97;;;7.50;99.90;;;;;;5115725;27;20046;-58
2021/05/03 08:32:02;;;;;;;49.92;33.53;;;7.60;99.90;;;;;;5132161;27;20043;-57
2021/05/03 08:34:28;;;;;;;56.45;35.38;;;7.70;99.90;;;;;;5103899;27;20473;-58
2021/05/03 08:36:56;;;;;;;56.55;35.00;;;7.80;99.90;;;;;;5124457;27;20082;-58
2021/05/03 08:39:26;;;;;;;54.33;36.28;;;7.90;99.90;;;;;;5115591;27;20055;-57
2021/05/03 08:41:56;;;;;;;54.85;39.03;;;8.10;99.90;;;;;;5131392;27;20499;-58
2021/05/03 08:44:25;;;;;;;78.03;47.28;;;8.30;99.90;;;;;;5099524;27;20042;-58
2021/05/03 08:46:52;;;;;;;;;;;8.70;99.90;;;;;;5125260;27;20059;-57
2021/05/03 08:54:59;;;;;;;34.63;25.65;;;9.10;99.90;;;;;;5094906;27;20095;-58
2021/05/03 08:57:24;;;;;;;35.38;25.45;;;9.00;99.90;;;;;;5119849;27;20039;-58
2021/05/03 08:59:50;;;;;;;32.20;25.05;;;8.80;99.90;;;;;;5126351;27;20441;-57
2021/05/03 09:02:17;;;;;;;34.30;25.30;;;8.50;99.90;;;;;;5129010;27;20039;-57
2021/05/03 09:04:42;;;;;;;39.28;27.90;;;8.50;99.90;;;;;;5119179;27;20042;-57
2021/05/03 09:07:10;;;;;;;34.58;27.40;;;8.70;99.90;;;;;;5122265;27;20462;-57
2021/05/03 09:09:51;;;;;;;38.70;26.70;;;8.70;99.90;;;;;;5123799;27;20534;-58
2021/05/03 09:12:22;;;;;;;33.30;26.38;;;8.80;99.90;;;;;;5129252;27;20040;-57
2021/05/03 09:14:56;;;;;;;21.60;16.33;;;8.90;99.90;;;;;;5119363;27;20039;-58
2021/05/03 09:17:24;;;;;;;9.77;7.85;;;9.10;99.90;;;;;;5101526;28;20070;-58
2021/05/03 09:19:50;;;;;;;9.38;8.27;;;9.30;99.90;;;;;;5114216;28;20049;-58
2021/05/03 09:22:27;;;;;;;10.15;8.02;;;9.40;99.90;;;;;;5119872;27;20040;-58
2021/05/03 09:24:55;;;;;;;8.40;6.60;;;9.50;99.90;;;;;;5120192;27;20050;-58
2021/05/03 09:27:21;;;;;;;7.53;6.40;;;9.50;99.90;;;;;;5120341;28;20124;-57
2021/05/03 09:29:48;;;;;;;10.20;7.28;;;9.60;99.90;;;;;;5125281;27;20481;-58
2021/05/03 09:32:20;;;;;;;9.38;6.50;;;10.00;99.90;;;;;;5127446;27;20477;-58
2021/05/03 09:34:48;;;;;;;10.25;7.13;;;10.10;99.90;;;;;;5106605;28;20122;-56
2021/05/03 09:37:16;;;;;;;8.25;6.80;;;10.30;99.90;;;;;;5122315;28;20047;-56
2021/05/03 09:40:16;;;;;;;10.88;6.50;;;10.30;99.90;;;;;;5118573;28;20047;-56
2021/05/03 09:42:53;;;;;;;14.80;6.20;;;10.50;99.90;;;;;;5048519;28;20056;-56
2021/05/03 09:45:30;;;;;;;9.73;6.90;;;11.00;99.90;;;;;;5068815;28;20413;-56
2021/05/03 09:47:58;;;;;;;11.95;9.43;;;11.50;99.90;;;;;;5068810;28;20052;-56
2021/05/03 09:50:30;;;;;;;15.82;10.45;;;11.90;99.90;;;;;;5068184;28;20498;-56
2021/05/03 09:53:05;;;;;;;11.02;8.32;;;12.30;99.90;;;;;;5068843;28;20040;-56
2021/05/03 09:55:43;;;;;;;15.27;10.35;;;12.40;99.90;;;;;;5068831;28;20123;-56
2021/05/03 09:58:14;;;;;;;12.77;11.43;;;12.10;99.90;;;;;;5068859;28;20044;-56
2021/05/03 10:00:42;;;;;;;12.68;11.38;;;11.90;99.90;;;;;;5069281;28;20052;-56
2021/05/03 10:03:36;;;;;;;15.65;12.38;;;12.00;99.90;;;;;;5068973;28;20094;-56
2021/05/03 10:06:04;;;;;;;13.93;12.23;;;11.90;99.90;;;;;;5069134;28;20097;-56
2021/05/03 10:08:30;;;;;;;19.27;14.85;;;11.80;99.90;;;;;;5069471;28;20082;-56
2021/05/03 10:11:01;;;;;;;16.80;14.55;;;11.40;99.90;;;;;;5069200;28;20048;-56
2021/05/03 10:13:28;;;;;;;18.83;16.67;;;11.20;99.90;;;;;;5071604;28;20044;-56
2021/05/03 10:15:55;;;;;;;19.88;16.90;;;11.00;99.90;;;;;;5072766;28;20401;-56
2021/05/03 10:18:22;;;;;;;23.50;18.60;;;10.90;99.90;;;;;;5073099;28;20398;-56
2021/05/03 10:20:49;;;;;;;21.48;18.52;;;10.80;99.90;;;;;;5114337;28;20047;-56
2021/05/03 10:23:19;;;;;;;21.90;18.17;;;10.60;99.90;;;;;;5115741;28;20047;-56
2021/05/03 10:25:45;;;;;;;21.70;18.55;;;10.20;99.90;;;;;;5115815;28;20039;-56
2021/05/03 10:28:11;;;;;;;25.08;19.88;;;10.60;99.90;;;;;;5097374;28;20435;-56
2021/05/03 10:30:47;;;;;;;25.42;21.63;;;10.70;99.90;;;;;;5115337;28;20047;-56
2021/05/03 10:33:14;;;;;;;25.63;21.52;;;10.90;99.90;;;;;;5115422;28;20039;-56
2021/05/03 10:35:48;;;;;;;31.90;25.05;;;11.20;99.90;;;;;;5115327;28;20073;-56
2021/05/03 10:38:38;;;;;;;33.83;26.02;;;11.80;99.90;;;;;;5115376;28;20125;-56
2021/05/03 10:41:26;;;;;;;32.22;25.52;;;12.10;99.90;;;;;;5115493;28;20154;-57
2021/05/03 10:44:09;;;;;;;33.65;26.48;;;12.30;99.90;;;;;;5115153;28;20054;-56
2021/05/03 10:49:14;;;;;;;32.80;25.30;;;12.30;99.90;;;;;;5114948;28;20044;-56
2021/05/03 10:51:49;;;;;;;32.80;25.52;;;12.10;99.90;;;;;;5115043;28;20047;-56
2021/05/03 10:57:22;;;;;;;31.75;26.33;;;11.80;99.90;;;;;;5115172;28;20044;-55
2021/05/03 10:59:56;;;;;;;33.50;25.20;;;11.60;99.90;;;;;;5012475;28;20129;-56
2021/05/03 11:02:25;;;;;;;31.42;25.63;;;11.70;99.90;;;;;;5012571;28;20413;-57
2021/05/03 11:05:30;;;;;;;24.00;20.42;;;11.60;99.90;;;;;;5012611;28;20349;-56
2021/05/03 11:08:05;;;;;;;24.17;20.33;;;11.80;99.90;;;;;;4954070;29;20374;-56
2021/05/03 11:11:01;;;;;;;28.52;20.85;;;12.00;99.90;;;;;;4953948;29;20449;-56
2021/05/03 11:13:36;;;;;;;28.65;22.63;;;12.00;99.90;;;;;;4953911;29;20047;-56
2021/05/03 11:16:31;;;;;;;27.17;23.45;;;12.20;99.90;;;;;;4954104;29;20094;-56
2021/05/03 11:19:01;;;;;;;33.13;22.63;;;12.40;99.90;;;;;;4953871;29;20051;-56
2021/05/03 11:21:56;;;;;;;27.02;22.40;;;12.20;99.90;;;;;;4953734;29;20051;-56
2021/05/03 11:24:38;;;;;;;26.13;19.42;;;12.30;99.90;;;;;;4933906;29;20054;-56
2021/05/03 11:29:37;;;;;;;15.57;11.40;;;12.20;99.90;;;;;;4953565;29;20051;-56
2021/05/03 11:32:04;;;;;;;13.05;10.63;;;12.10;99.90;;;;;;4953511;29;20130;-56
2021/05/03 11:34:36;;;;;;;20.70;12.07;;;12.40;99.90;;;;;;4953609;29;20047;-56
2021/05/03 11:37:08;;;;;;;21.02;15.82;;;12.70;99.90;;;;;;4985517;28;20064;-56
2021/05/03 11:44:56;;;;;;;21.73;16.83;;;13.50;99.90;;;;;;4992117;28;20065;-56
2021/05/03 11:47:30;;;;;;;23.13;16.88;;;13.50;99.90;;;;;;4992037;28;20058;-56
2021/05/03 11:49:57;;;;;;;20.00;17.63;;;13.40;99.90;;;;;;4991919;28;20062;-56
2021/05/03 11:52:30;;;;;;;26.55;18.75;;;13.40;99.90;;;;;;4992058;28;20070;-56
2021/05/03 11:55:10;;;;;;;21.65;17.15;;;12.90;99.90;;;;;;4991759;28;20049;-56
2021/05/03 11:57:44;;;;;;;30.77;20.25;;;12.70;99.90;;;;;;4991836;28;20038;-56
2021/05/03 12:00:12;;;;;;;24.70;18.35;;;12.50;99.90;;;;;;5001966;28;20053;-56
2021/05/03 12:02:37;;;;;;;22.63;18.35;;;12.30;99.90;;;;;;5031245;28;20063;-57
2021/05/03 12:05:14;;;;;;;16.27;12.88;;;12.00;99.90;;;;;;5031007;28;20559;-56
2021/05/03 12:07:39;;;;;;;11.98;10.73;;;12.00;99.90;;;;;;5031107;28;20116;-56
2021/05/03 12:10:16;;;;;;;15.90;12.43;;;11.80;99.90;;;;;;5030923;28;20488;-56
2021/05/03 12:12:45;;;;;;;14.10;12.07;;;11.80;99.90;;;;;;5030899;28;20060;-56
2021/05/03 12:15:28;;;;;;;15.05;12.50;;;11.90;99.90;;;;;;5030861;28;20069;-56
2021/05/03 12:17:55;;;;;;;11.95;9.82;;;11.90;99.90;;;;;;5030798;28;20048;-56
2021/05/03 12:20:26;;;;;;;16.88;11.60;;;11.80;99.90;;;;;;5030698;28;20041;-56
2021/05/03 12:23:01;;;;;;;16.10;11.95;;;11.70;99.90;;;;;;5102402;28;20504;-56
2021/05/03 12:28:20;;;;;;;14.15;11.02;;;11.30;99.90;;;;;;5113226;28;20063;-56
2021/05/03 12:30:47;;;;;;;18.13;12.90;;;11.10;99.90;;;;;;5113234;28;20047;-56
2021/05/03 12:33:23;;;;;;;20.42;15.93;;;11.10;99.90;;;;;;5113167;28;20469;-56
2021/05/03 12:35:50;;;;;;;20.05;15.07;;;11.10;99.90;;;;;;5112025;28;20046;-56
2021/05/03 12:38:25;;;;;;;17.10;11.45;;;11.10;99.90;;;;;;5112778;28;20048;-56
2021/05/03 12:40:52;;;;;;;16.05;7.72;;;11.10;99.90;;;;;;5112968;28;20043;-56
2021/05/03 12:43:24;;;;;;;10.63;7.43;;;11.60;99.90;;;;;;5112927;28;20046;-56
2021/05/03 12:48:48;;;;;;;9.95;8.80;;;12.00;99.90;;;;;;5112754;28;20445;-56
2021/05/03 12:54:12;;;;;;;17.05;11.32;;;11.90;99.90;;;;;;5112704;28;20081;-56
2021/05/03 13:00:01;;;;;;;11.85;10.45;;;11.90;99.90;;;;;;5112478;28;20400;-56
2021/05/03 13:05:11;;;;;;;14.13;8.60;;;12.30;99.90;;;;;;5112775;28;20051;-56
2021/05/03 13:29:44;;;;;;;9.13;4.82;;;12.70;99.90;;;;;;5112302;28;20040;-56
2021/05/03 13:32:19;;;;;;;5.78;4.60;;;12.70;99.90;;;;;;5112365;28;20043;-56
2021/05/03 13:34:49;;;;;;;6.10;3.30;;;12.90;99.90;;;;;;5112068;28;20067;-56
2021/05/03 13:37:16;;;;;;;6.00;3.65;;;13.00;99.90;;;;;;5111920;28;20036;-56
2021/05/03 13:39:42;;;;;;;5.07;3.90;;;13.10;99.70;;;;;;5112020;28;20062;-56
2021/05/03 13:42:11;;;;;;;6.53;3.20;;;13.10;99.90;;;;;;5112255;28;20047;-56
2021/05/03 13:44:38;;;;;;;4.82;3.53;;;13.20;99.90;;;;;;5112170;28;20056;-56
2021/05/03 13:47:05;;;;;;;5.95;4.03;;;13.30;99.90;;;;;;5112380;28;20477;-56
2021/05/03 13:49:31;;;;;;;5.88;3.40;;;13.20;98.60;;;;;;5116257;28;20126;-56
2021/05/03 13:52:04;;;;;;;7.22;3.40;;;13.20;99.90;;;;;;5116264;28;20042;-56
2021/05/03 13:54:31;;;;;;;5.60;3.33;;;13.10;99.20;;;;;;5116119;28;20040;-56
2021/05/03 13:57:02;;;;;;;5.57;3.50;;;13.20;99.90;;;;;;5116016;28;20529;-56
2021/05/03 13:59:28;;;;;;;6.13;3.80;;;13.10;99.90;;;;;;5116241;28;20110;-56
2021/05/03 14:01:55;;;;;;;6.53;3.20;;;13.00;99.30;;;;;;5115817;28;20037;-56
2021/05/03 14:04:21;;;;;;;3.85;3.55;;;12.80;99.90;;;;;;5116303;28;20039;-56